Nearby METAR Reports

 

KBMG - Bloomington, Indiana, USA
Distance from station: SSE 11mi, 18km
Updated: Wed, 25-Apr-2018 3:53pm EDT
Clear
Clear
 Wind from N
Wind: N 9 mph , 15 km/h
Temperature: 63°F , 17°C
Dew Point: 52°F , 11°C
Humidity: 68%
Barometer: 29.98 inHg , 1015.2 hPa
Clouds: Clear
Visibility: 10 miles , 16 km
2018/04/25 19:53 KBMG 251953Z 35008KT 310V020 10SM CLR 17/11 A2998 RMK AO2 SLP150 T01720106
KHUF - Terre Haute, Indiana, USA
Distance from station: WNW 34mi, 54km
Updated: Wed, 25-Apr-2018 3:53pm EDT
Few Clouds
Few Clouds
 Wind from NW
Wind: NW 12 mph , 19 km/h
Temperature: 66°F , 19°C
Dew Point: 46°F , 8°C
Humidity: 49%
Barometer: 29.98 inHg , 1015.2 hPa
Clouds: Few Clouds
Visibility: 10 miles , 16 km
Cloud details: Few Clouds 4600 ft
2018/04/25 19:53 KHUF 251953Z 31010KT 10SM FEW046 19/08 A2998 RMK AO2 SLP151 T01890083
 
KIND - Indianapolis, Indiana, USA
Distance from station: NE 36mi, 58km
Updated: Wed, 25-Apr-2018 3:54pm EDT
Mostly cloudy
Mostly cloudy
 Wind from NNW
Wind: NNW 12 mph , 19 km/h
Temperature: 64°F , 18°C
Dew Point: 46°F , 8°C
Humidity: 52%
Barometer: 29.97 inHg , 1014.9 hPa
Clouds: Mostly cloudy
Visibility: 10 miles , 16 km
Cloud details: Partly cloudy 3000 ft
Mostly cloudy 25000 ft
2018/04/25 19:54 KIND 251954Z 34010KT 10SM SCT030 BKN250 18/08 A2997 RMK AO2 SLP148 T01780083
KBAK - Columbus/Balkala, Indiana, USA
Distance from station: E 43mi, 69km
Updated: Wed, 25-Apr-2018 3:50pm EDT
Partly cloudy
Partly cloudy
 Wind from NW
Wind: NW 15 mph , 24 km/h, Gust: 21 mph , 33 km/h
Temperature: 63°F , 17°C
Dew Point: 48°F , 9°C
Humidity: 59%
Barometer: 29.98 inHg , 1015.2 hPa
Clouds: Partly cloudy
Visibility: 10 miles , 16 km
Cloud details: Partly cloudy 3100 ft
2018/04/25 19:50 KBAK 251950Z 32013G18KT 10SM SCT031 17/09 A2998
 
KEYE - Indianapolis, Indiana, USA
Distance from station: NNE 43mi, 69km
Updated: Wed, 25-Apr-2018 3:53pm EDT
Partly cloudy
Partly cloudy
 Wind from NW
Wind: NW 9 mph , 15 km/h
Temperature: 64°F , 18°C
Dew Point: 45°F , 7°C
Humidity: 49%
Barometer: 29.96 inHg , 1014.6 hPa
Clouds: Partly cloudy
Visibility: 10 miles , 16 km
Cloud details: Partly cloudy 4400 ft
2018/04/25 19:53 KEYE 251953Z AUTO 32008KT 10SM SCT044 18/07 A2996 RMK AO2 SLP145 T01830072
KDCY - Daviess County, Indiana, USA
Distance from station: SSW 47mi, 76km
Updated: Wed, 25-Apr-2018 3:55pm EDT
Partly cloudy
Partly cloudy
 Wind from N
Wind: N 7 mph , 11 km/h
Temperature: 66°F , 19°C
Dew Point: 48°F , 9°C
Humidity: 52%
Barometer: 29.97 inHg , 1014.9 hPa
Clouds: Partly cloudy
Visibility: 10 miles , 16 km
Cloud details: Partly cloudy 3700 ft
2018/04/25 19:55 KDCY 251955Z AUTO 36006KT 10SM SCT037 19/09 A2997 RMK AO2 T01900086
 
KGEZ - Shelbyville, Indiana, USA
Distance from station: ENE 52mi, 83km
Updated: Wed, 25-Apr-2018 3:53pm EDT
Few Clouds
Few Clouds
 Wind from NNW
Wind: NNW 9 mph , 15 km/h
Temperature: 63°F , 17°C
Dew Point: 48°F , 9°C
Humidity: 59%
Barometer: 29.96 inHg , 1014.6 hPa
Clouds: Few Clouds
Visibility: 10 miles , 16 km
Cloud details: Few Clouds 2900 ft
2018/04/25 19:53 KGEZ 251953Z AUTO 33008KT 10SM FEW029 17/09 A2996 RMK AO2 SLP144 T01720089
KRSV - Robinson Muni, Illinois, USA
Distance from station: WSW 55mi, 88km
Updated: Wed, 25-Apr-2018 3:55pm EDT
Mostly cloudy
Mostly cloudy
 Wind from NNE
Wind: NNE 8 mph , 13 km/h
Temperature: 64°F , 18°C
Dew Point: 52°F , 11°C
Humidity: 64%
Barometer: 30.00 inHg , 1015.9 hPa
Clouds: Mostly cloudy
Visibility: 10 miles , 16 km
Cloud details: Mostly cloudy 3500 ft
Mostly cloudy 4100 ft
2018/04/25 19:55 KRSV 251955Z AUTO 03007KT 10SM BKN035 BKN041 18/11 A3000 RMK AO2 T01840114
 
KTYQ - Indianapolis Exc, Indiana, USA
Distance from station: NNE 56mi, 90km
Updated: Wed, 25-Apr-2018 3:55pm EDT
Partly cloudy
Partly cloudy
 Wind from N
Wind: N 14 mph , 22 km/h, Gust: 18 mph , 30 km/h
Temperature: 63°F , 17°C
Dew Point: 45°F , 7°C
Humidity: 52%
Barometer: 29.97 inHg , 1014.9 hPa
Clouds: Partly cloudy
Visibility: 10 miles , 16 km
Cloud details: Partly cloudy 4700 ft
2018/04/25 19:55 KTYQ 251955Z AUTO 36012G16KT 10SM SCT047 17/07 A2997 RMK AO2 T01670070
KMQJ - Indianapolis Reg, Indiana, USA
Distance from station: NE 57mi, 92km
Updated: Wed, 25-Apr-2018 3:56pm EDT
Partly cloudy
Partly cloudy
 Wind from NNW
Wind: NNW 12 mph , 19 km/h, Gust: 18 mph , 30 km/h
Temperature: 64°F , 18°C
Dew Point: 52°F , 11°C
Humidity: 64%
Barometer: 29.97 inHg , 1014.9 hPa
Clouds: Partly cloudy
Visibility: 10 miles , 16 km
Cloud details: Partly cloudy 3600 ft
Partly cloudy 4500 ft
2018/04/25 19:56 KMQJ 251956Z AUTO 33010G16KT 10SM SCT036 SCT045 18/11 A2997 RMK AO1
 
KPRG - Paris, Illinois, USA
Distance from station: WNW 59mi, 94km
Updated: Wed, 25-Apr-2018 3:55pm EDT
Clear
Clear
 Wind from NNE
Wind: NNE 7 mph , 11 km/h
Temperature: 64°F , 18°C
Dew Point: 41°F , 5°C
Humidity: 43%
Barometer: 30.00 inHg , 1015.9 hPa
Clouds: Clear
Visibility: 10 miles , 16 km
2018/04/25 19:55 KPRG 251955Z AUTO 02006KT 10SM CLR 18/05 A3000 RMK AO2 T01830049
KLWV - Lawrenceville, Illinois, USA
Distance from station: SW 61mi, 98km
Updated: Wed, 25-Apr-2018 3:53pm EDT
Few Clouds
Few Clouds
 
Temperature: 70°F , 21°C
Dew Point: 52°F , 11°C
Humidity: 53%
Barometer: 29.98 inHg , 1015.2 hPa
Clouds: Few Clouds
Visibility: 10 miles , 16 km
Cloud details: Few Clouds 4000 ft
2018/04/25 19:53 KLWV 251953Z AUTO 10SM FEW040 21/11 A2998 RMK AO2 SLP152 T02060106
 
KAJG - Mount Carmel, Illinois, USA
Distance from station: SW 73mi, 117km
Updated: Wed, 25-Apr-2018 3:55pm EDT
Partly cloudy
Partly cloudy
 Wind from NNW
Wind: NNW 7 mph , 11 km/h
Temperature: 68°F , 20°C
Dew Point: 50°F , 10°C
Humidity: 53%
Barometer: 29.98 inHg , 1015.2 hPa
Clouds: Partly cloudy
Visibility: 10 miles , 16 km
Cloud details: Partly cloudy 4100 ft
2018/04/25 19:55 KAJG 251955Z AUTO 34006KT 10SM SCT041 20/10 A2998 RMK AO2 T01950100
KHNB - Huntingburg, Indiana, USA
Distance from station: S 74mi, 119km
Updated: Wed, 25-Apr-2018 3:56pm EDT
Few Clouds
Few Clouds
 Wind from WNW
Wind: WNW 10 mph , 17 km/h, Gust: 16 mph , 26 km/h
Temperature: 66°F , 19°C
Dew Point: 52°F , 11°C
Humidity: 60%
Barometer: 29.97 inHg , 1014.9 hPa
Clouds: Few Clouds
Visibility: 10 miles , 16 km
Cloud details: Few Clouds 4100 ft
2018/04/25 19:56 KHNB 251956Z AUTO 30009G14KT 10SM FEW041 19/11 A2997 RMK AO2 SLP147 T01940111
 
KLAF - Lafayette, Indiana, USA
Distance from station: N 78mi, 126km
Updated: Wed, 25-Apr-2018 3:54pm EDT
Clear
Clear
 Wind from N
Wind: N 15 mph , 24 km/h
Temperature: 61°F , 16°C
Dew Point: 37°F , 3°C
Humidity: 42%
Barometer: 30.00 inHg , 1015.9 hPa
Clouds: Clear
Visibility: 10 miles , 16 km
2018/04/25 19:54 KLAF 251954Z 01013KT 320V030 10SM CLR 16/03 A3000 RMK AO2 SLP159 T01610033
KDNV - Danville, Illinois, USA
Distance from station: NW 79mi, 126km
Updated: Wed, 25-Apr-2018 3:55pm EDT
Clear
Clear
 Wind from NNE
Wind: NNE 13 mph , 20 km/h, Gust: 21 mph , 33 km/h
Temperature: 61°F , 16°C
Dew Point: 37°F , 3°C
Humidity: 42%
Barometer: 29.98 inHg , 1015.2 hPa
Clouds: Clear
Visibility: 10 miles , 16 km
2018/04/25 19:55 KDNV 251955Z AUTO 02011G18KT 10SM CLR 16/03 A2998 RMK AO2 T01620034
 
KAID - Anderson Municip, Indiana, USA
Distance from station: NE 81mi, 130km
Updated: Wed, 25-Apr-2018 3:45pm EDT
Mostly cloudy
Mostly cloudy
 Wind from NW
Wind: NW 12 mph , 19 km/h, Gust: 17 mph , 28 km/h
Temperature: 63°F , 17°C
Dew Point: 48°F , 9°C
Humidity: 59%
Barometer: 29.96 inHg , 1014.6 hPa
Clouds: Mostly cloudy
Visibility: 10 miles , 16 km
Cloud details: Mostly cloudy 5000 ft
2018/04/25 19:45 KAID 251945Z 31010G15KT 10SM BKN050 17/09 A2996
KMTO - Mattoon/Charlest, Illinois, USA
Distance from station: W 85mi, 136km
Updated: Wed, 25-Apr-2018 3:53pm EDT
Clear
Clear
 Wind from N
Wind: N 12 mph , 19 km/h
Temperature: 64°F , 18°C
Dew Point: 46°F , 8°C
Humidity: 52%
Barometer: 29.99 inHg , 1015.6 hPa
Clouds: Clear
Visibility: 10 miles , 16 km
2018/04/25 19:53 KMTO 251953Z AUTO 01010KT 10SM CLR 18/08 A2999 RMK AO2 SLP156 T01780083
 
KOLY - Olney-Noble, Illinois, USA
Distance from station: WSW 89mi, 144km
Updated: Wed, 25-Apr-2018 3:55pm EDT
Partly cloudy
Partly cloudy
 Wind from NE
Wind: NE 6 mph , 9 km/h
Temperature: 66°F , 19°C
Dew Point: 46°F , 8°C
Humidity: 49%
Barometer: 29.99 inHg , 1015.6 hPa
Clouds: Partly cloudy
Visibility: 10 miles , 16 km
Cloud details: Partly cloudy 3900 ft
2018/04/25 19:55 KOLY 251955Z AUTO 04005KT 10SM SCT039 19/08 A2999 RMK AO2 T01910077
KOKK - Kokomo, Indiana, USA
Distance from station: NNE 92mi, 148km
Updated: Wed, 25-Apr-2018 3:56pm EDT
Clear
Clear
 Wind from NW
Wind: NW 20 mph , 31 km/h
Temperature: 63°F , 17°C
Dew Point: 37°F , 3°C
Humidity: 39%
Barometer: 29.98 inHg , 1015.2 hPa
Clouds: Clear
Visibility: 10 miles , 16 km
2018/04/25 19:56 KOKK 251956Z AUTO 32017KT 10SM CLR 17/03 A2998 RMK AO2 SLP152 T01720033